createdAt,value
2022-10-05T00:00:26.379Z,10.44
2022-10-05T00:02:55.330Z,10.71
2022-10-05T00:05:27.801Z,10.78
2022-10-05T00:07:57.507Z,10.84
2022-10-05T00:10:25.460Z,10.53
2022-10-05T00:12:52.905Z,10.65
2022-10-05T00:15:22.022Z,10.79
2022-10-05T00:17:50.855Z,10.53
2022-10-05T00:20:22.012Z,10.48
2022-10-05T00:22:50.268Z,10.48
2022-10-05T00:25:19.927Z,10.59
2022-10-05T00:27:52.945Z,10.59
2022-10-05T00:30:22.300Z,10.58
2022-10-05T00:32:53.034Z,10.50
2022-10-05T00:35:23.575Z,10.22
2022-10-05T00:37:55.688Z,10.23
2022-10-05T00:40:35.154Z,10.30
2022-10-05T00:43:22.450Z,10.43
2022-10-05T00:45:53.258Z,10.53
2022-10-05T00:48:32.591Z,10.54
2022-10-05T00:51:10.200Z,10.35
2022-10-05T00:53:45.161Z,10.27
2022-10-05T00:56:25.473Z,10.35
2022-10-05T00:59:05.425Z,10.18
2022-10-05T01:01:37.867Z,9.89
2022-10-05T01:04:17.261Z,9.92
2022-10-05T01:06:57.746Z,9.91
2022-10-05T01:09:37.998Z,9.74
2022-10-05T01:12:12.369Z,9.64
2022-10-05T01:14:47.358Z,9.62
2022-10-05T01:17:20.039Z,9.52
2022-10-05T01:20:21.804Z,9.38
2022-10-05T01:23:11.088Z,9.40
2022-10-05T01:25:52.832Z,9.48
2022-10-05T01:28:25.019Z,9.55
2022-10-05T01:31:01.522Z,9.67
2022-10-05T01:33:38.865Z,9.75
2022-10-05T01:36:15.590Z,9.76
2022-10-05T01:38:52.804Z,9.55
2022-10-05T01:41:32.110Z,9.56
2022-10-05T01:44:06.456Z,9.59
2022-10-05T01:46:36.882Z,9.80
2022-10-05T01:49:19.108Z,9.72
2022-10-05T01:52:00.471Z,9.79
2022-10-05T01:54:40.788Z,9.95
2022-10-05T01:57:20.808Z,9.87
2022-10-05T02:00:03.324Z,9.91
2022-10-05T02:02:35.832Z,9.97
2022-10-05T02:05:09.704Z,9.94
2022-10-05T02:07:42.361Z,10.03
2022-10-05T02:10:18.784Z,9.95
2022-10-05T02:12:49.314Z,10.03
2022-10-05T02:15:23.582Z,9.96
2022-10-05T02:17:51.793Z,9.95
2022-10-05T02:20:24.519Z,9.90
2022-10-05T02:22:54.700Z,9.80
2022-10-05T02:25:24.608Z,9.73
2022-10-05T02:27:57.665Z,9.78
2022-10-05T02:30:26.911Z,9.37
2022-10-05T02:32:59.397Z,9.42
2022-10-05T02:35:26.942Z,9.31
2022-10-05T02:38:10.615Z,9.11
2022-10-05T02:40:48.885Z,9.04
2022-10-05T02:43:27.108Z,9.26
2022-10-05T02:46:06.124Z,9.27
2022-10-05T02:48:42.571Z,9.40
2022-10-05T02:51:18.893Z,9.54
2022-10-05T02:54:04.400Z,9.57
2022-10-05T02:56:39.326Z,9.65
2022-10-05T02:59:13.380Z,9.71
2022-10-05T03:01:48.987Z,9.46
2022-10-05T03:04:27.080Z,9.38
2022-10-05T03:07:04.488Z,9.50
2022-10-05T03:09:38.493Z,9.33
2022-10-05T03:12:16.660Z,9.33
2022-10-05T03:14:54.375Z,9.58
2022-10-05T03:17:26.542Z,9.53
2022-10-05T03:20:08.348Z,9.59
2022-10-05T03:22:48.500Z,9.67
2022-10-05T03:25:28.478Z,9.67
2022-10-05T03:28:02.059Z,9.66
2022-10-05T03:30:37.866Z,9.68
2022-10-05T03:33:16.475Z,9.71
2022-10-05T03:35:51.350Z,9.54
2022-10-05T03:38:24.707Z,9.76
2022-10-05T03:40:58.026Z,9.73
2022-10-05T03:43:42.699Z,9.71
2022-10-05T03:46:14.939Z,9.63
2022-10-05T03:48:53.163Z,9.47
2022-10-05T03:51:28.622Z,9.24
2022-10-05T03:54:00.872Z,8.98
2022-10-05T03:56:35.749Z,8.88
2022-10-05T03:59:13.020Z,8.76
2022-10-05T04:01:46.287Z,8.74
2022-10-05T04:04:23.001Z,8.78
2022-10-05T04:06:55.091Z,8.81
2022-10-05T04:09:27.157Z,8.70
2022-10-05T04:12:02.772Z,8.81
2022-10-05T04:14:35.753Z,8.74
2022-10-05T04:17:09.553Z,8.74
2022-10-05T04:19:44.994Z,8.58
2022-10-05T04:22:16.803Z,8.46
2022-10-05T04:24:50.099Z,8.38
2022-10-05T04:27:20.175Z,8.25
2022-10-05T04:29:54.999Z,8.25
2022-10-05T04:32:31.117Z,8.52
2022-10-05T04:35:21.326Z,8.39
2022-10-05T04:37:56.804Z,8.28
2022-10-05T04:40:39.978Z,8.16
2022-10-05T04:43:15.261Z,8.34
2022-10-05T04:46:00.329Z,7.91
2022-10-05T04:48:51.589Z,8.11
2022-10-05T04:51:35.545Z,7.95
2022-10-05T04:54:15.291Z,8.00
2022-10-05T04:56:50.293Z,7.80
2022-10-05T04:59:43.254Z,7.98
2022-10-05T05:02:21.849Z,7.88
2022-10-05T05:05:05.900Z,7.69
2022-10-05T05:07:43.753Z,7.84
2022-10-05T05:10:40.050Z,7.74
2022-10-05T05:13:21.191Z,7.69
2022-10-05T05:15:53.878Z,7.63
2022-10-05T05:18:46.923Z,7.84
2022-10-05T05:21:25.775Z,7.71
2022-10-05T05:24:03.886Z,7.62
2022-10-05T05:26:52.136Z,7.90
2022-10-05T05:29:25.712Z,7.68
2022-10-05T05:32:02.941Z,7.75
2022-10-05T05:34:44.784Z,7.90
2022-10-05T05:37:26.248Z,7.76
2022-10-05T05:40:04.758Z,8.03
2022-10-05T05:42:41.457Z,8.06
2022-10-05T05:45:17.622Z,7.98
2022-10-05T05:47:53.702Z,8.17
2022-10-05T05:50:34.904Z,8.28
2022-10-05T05:53:08.092Z,8.22
2022-10-05T05:55:41.275Z,8.32
2022-10-05T05:58:15.832Z,8.50
2022-10-05T06:00:47.022Z,8.38
2022-10-05T06:03:20.207Z,8.52
2022-10-05T06:05:52.106Z,8.53
2022-10-05T06:08:29.374Z,8.48
2022-10-05T06:11:02.501Z,8.73
2022-10-05T06:13:34.294Z,8.81
2022-10-05T06:16:09.301Z,8.89
2022-10-05T06:18:40.716Z,9.03
2022-10-05T06:21:16.847Z,9.24
2022-10-05T06:23:49.700Z,9.32
2022-10-05T06:26:39.615Z,9.39
2022-10-05T06:29:13.326Z,9.56
2022-10-05T06:31:59.163Z,9.71
2022-10-05T06:34:47.509Z,9.87
2022-10-05T06:37:24.760Z,9.96
2022-10-05T06:40:04.823Z,10.02
2022-10-05T06:43:03.329Z,10.15
2022-10-05T06:45:43.850Z,10.28
2022-10-05T06:48:20.937Z,10.36
2022-10-05T06:50:55.911Z,10.38
2022-10-05T06:53:32.322Z,10.58
2022-10-05T06:56:08.440Z,10.75
2022-10-05T06:58:49.456Z,10.92
2022-10-05T07:01:30.030Z,10.98
2022-10-05T07:04:15.544Z,11.15
2022-10-05T07:06:50.643Z,11.30
2022-10-05T07:09:36.934Z,11.39
2022-10-05T07:12:20.837Z,11.55
2022-10-05T07:15:02.617Z,11.66
2022-10-05T07:17:45.501Z,11.72
2022-10-05T07:20:18.611Z,11.85
2022-10-05T07:23:02.000Z,12.13
2022-10-05T07:25:36.831Z,12.30
2022-10-05T07:28:08.735Z,12.42
2022-10-05T07:30:46.806Z,12.52
2022-10-05T07:33:19.620Z,12.81
2022-10-05T07:36:11.803Z,12.84
2022-10-05T07:38:43.499Z,13.02
2022-10-05T07:41:19.242Z,13.25
2022-10-05T07:44:03.017Z,13.32
2022-10-05T07:46:46.555Z,13.51
2022-10-05T07:49:24.254Z,13.74
2022-10-05T07:51:56.721Z,13.69
2022-10-05T07:54:30.301Z,13.99
2022-10-05T07:57:08.489Z,14.17
2022-10-05T07:59:44.088Z,14.33
2022-10-05T08:02:23.469Z,14.53
2022-10-05T08:04:58.316Z,14.63
2022-10-05T08:07:26.425Z,14.74
2022-10-05T08:10:00.281Z,14.70
2022-10-05T08:12:33.219Z,14.74
2022-10-05T08:15:06.780Z,14.93
2022-10-05T08:17:47.412Z,14.95
2022-10-05T08:20:30.609Z,15.08
2022-10-05T08:23:02.708Z,15.21
2022-10-05T08:25:39.624Z,15.18
2022-10-05T08:28:15.231Z,15.19
2022-10-05T08:30:55.959Z,15.27
2022-10-05T08:33:28.020Z,15.51
2022-10-05T08:36:07.123Z,15.55
2022-10-05T08:38:35.510Z,15.57
2022-10-05T08:41:56.279Z,15.77
2022-10-05T08:44:58.720Z,15.98
2022-10-05T08:47:42.498Z,16.04
2022-10-05T08:50:26.094Z,16.15
2022-10-05T08:53:28.444Z,16.09
2022-10-05T08:56:28.454Z,16.19
2022-10-05T08:59:11.422Z,16.11
2022-10-05T09:02:01.478Z,15.99
2022-10-05T09:04:43.867Z,16.11
2022-10-05T09:07:22.621Z,16.18
2022-10-05T09:10:12.654Z,16.29
2022-10-05T09:13:14.647Z,16.55
2022-10-05T09:16:05.312Z,16.82
2022-10-05T09:18:54.938Z,16.98
2022-10-05T09:21:41.655Z,17.13
2022-10-05T09:24:26.821Z,17.07
2022-10-05T09:27:03.172Z,17.19
2022-10-05T09:30:06.255Z,17.11
2022-10-05T09:33:01.320Z,17.36
2022-10-05T09:35:51.352Z,17.52
2022-10-05T09:38:31.574Z,17.54
2022-10-05T09:41:28.147Z,17.70
2022-10-05T09:44:22.989Z,17.92
2022-10-05T09:47:04.026Z,18.23
2022-10-05T09:49:56.900Z,17.82
2022-10-05T09:52:49.668Z,17.84
2022-10-05T09:55:46.758Z,17.75
2022-10-05T09:58:41.291Z,17.90
2022-10-05T10:01:33.190Z,18.01
2022-10-05T10:04:12.925Z,18.01
2022-10-05T10:07:04.876Z,18.06
2022-10-05T10:09:39.892Z,18.10
2022-10-05T10:12:25.206Z,18.09
2022-10-05T10:15:32.184Z,18.08
2022-10-05T10:18:13.707Z,18.17
2022-10-05T10:20:58.846Z,18.39
2022-10-05T10:24:00.129Z,18.51
2022-10-05T10:27:05.449Z,18.83
2022-10-05T10:29:46.557Z,18.73
2022-10-05T10:32:35.070Z,18.55
2022-10-05T10:35:21.311Z,18.43
2022-10-05T10:38:29.456Z,18.23
2022-10-05T10:41:11.740Z,18.17
2022-10-05T10:44:02.151Z,18.26
2022-10-05T10:46:40.656Z,18.58
2022-10-05T10:49:26.718Z,18.96
2022-10-05T10:52:06.896Z,19.22
2022-10-05T10:54:56.916Z,19.35
2022-10-05T10:57:34.890Z,19.41
2022-10-05T11:00:29.784Z,19.39
2022-10-05T11:03:08.429Z,19.43
2022-10-05T11:05:56.151Z,19.56
2022-10-05T11:08:54.554Z,19.83
2022-10-05T11:11:51.264Z,20.01
2022-10-05T11:14:47.248Z,20.15
2022-10-05T11:17:46.953Z,19.93
2022-10-05T11:20:39.354Z,19.74
2022-10-05T11:23:44.047Z,19.85
2022-10-05T11:26:32.465Z,20.10
2022-10-05T11:29:18.448Z,20.23
2022-10-05T11:32:08.590Z,20.41
2022-10-05T11:34:59.671Z,20.55
2022-10-05T11:37:48.617Z,20.82
2022-10-05T11:40:56.792Z,20.79
2022-10-05T11:43:48.337Z,20.54
2022-10-05T11:46:23.824Z,20.47
2022-10-05T11:49:02.963Z,20.39
2022-10-05T11:51:44.588Z,20.17
2022-10-05T11:54:25.894Z,20.09
2022-10-05T11:57:01.325Z,19.91
2022-10-05T11:59:35.743Z,19.95
2022-10-05T12:02:17.790Z,19.85
2022-10-05T12:04:56.075Z,19.80
2022-10-05T12:07:29.987Z,19.65
2022-10-05T12:10:16.771Z,19.69
2022-10-05T12:13:05.555Z,19.79
2022-10-05T12:15:43.048Z,19.89
2022-10-05T12:18:16.104Z,20.12
2022-10-05T12:20:50.375Z,20.29
2022-10-05T12:23:20.890Z,20.17
2022-10-05T12:25:54.540Z,20.22
2022-10-05T12:28:30.808Z,20.12
2022-10-05T12:31:09.234Z,20.15
2022-10-05T12:33:45.108Z,20.22
2022-10-05T12:36:16.150Z,20.19
2022-10-05T12:38:51.112Z,20.06
2022-10-05T12:41:25.711Z,20.21
2022-10-05T12:44:07.453Z,20.31
2022-10-05T12:46:42.816Z,20.23
2022-10-05T12:49:41.038Z,20.11
2022-10-05T12:52:25.274Z,20.12
2022-10-05T12:55:05.667Z,20.09
2022-10-05T12:57:44.504Z,20.06
2022-10-05T13:00:21.781Z,20.06
2022-10-05T13:02:51.810Z,20.13
2022-10-05T13:05:26.351Z,20.13
2022-10-05T13:08:18.331Z,20.21
2022-10-05T13:10:49.125Z,20.35
2022-10-05T13:13:33.580Z,20.32
2022-10-05T13:16:22.406Z,20.31
2022-10-05T13:19:06.971Z,20.20
2022-10-05T13:21:40.876Z,20.20
2022-10-05T13:24:19.104Z,20.20
2022-10-05T13:26:51.367Z,20.13
2022-10-05T13:29:26.171Z,20.19
2022-10-05T13:31:58.168Z,20.14
2022-10-05T13:34:55.777Z,20.10
2022-10-05T13:37:32.258Z,20.14
2022-10-05T13:40:12.539Z,20.16
2022-10-05T13:42:48.162Z,20.06
2022-10-05T13:45:20.727Z,20.22
2022-10-05T13:48:09.968Z,20.19
2022-10-05T13:50:45.883Z,20.24
2022-10-05T13:53:21.418Z,20.29
2022-10-05T13:55:54.512Z,20.28
2022-10-05T13:58:34.483Z,20.31
2022-10-05T14:01:03.803Z,20.33
2022-10-05T14:03:35.737Z,20.33
2022-10-05T14:06:11.555Z,20.25
2022-10-05T14:08:53.170Z,20.30
2022-10-05T14:11:22.864Z,20.36
2022-10-05T14:13:50.749Z,20.43
2022-10-05T14:16:23.765Z,20.44
2022-10-05T14:18:55.926Z,20.41
2022-10-05T14:21:25.426Z,20.42
2022-10-05T14:23:54.042Z,20.36
2022-10-05T14:26:32.956Z,20.36
2022-10-05T14:29:03.184Z,20.40
2022-10-05T14:31:37.210Z,20.33
2022-10-05T14:34:32.285Z,20.37
2022-10-05T14:37:02.732Z,20.34
2022-10-05T14:39:35.122Z,20.36
2022-10-05T14:42:15.625Z,20.40
2022-10-05T14:44:43.151Z,20.50
2022-10-05T14:47:21.060Z,20.46
2022-10-05T14:50:10.538Z,20.41
2022-10-05T14:52:41.075Z,20.35
2022-10-05T14:55:30.976Z,20.25
2022-10-05T14:58:10.179Z,20.27
2022-10-05T15:00:48.167Z,20.21
2022-10-05T15:03:35.404Z,20.01
2022-10-05T15:06:09.514Z,19.98
2022-10-05T15:09:16.402Z,19.88
2022-10-05T15:11:50.362Z,19.87
2022-10-05T15:14:22.657Z,19.95
2022-10-05T15:16:53.838Z,20.01
2022-10-05T15:19:27.888Z,20.04
2022-10-05T15:22:12.632Z,20.03
2022-10-05T15:24:46.568Z,19.95
2022-10-05T15:27:25.539Z,19.91
2022-10-05T15:30:04.308Z,19.91
2022-10-05T15:32:57.883Z,19.81
2022-10-05T15:35:54.172Z,19.81
2022-10-05T15:38:25.820Z,19.78
2022-10-05T15:41:07.538Z,19.61
2022-10-05T15:43:45.952Z,19.46
2022-10-05T15:46:18.964Z,19.38
2022-10-05T15:48:55.104Z,19.42
2022-10-05T15:51:41.467Z,19.40
2022-10-05T15:54:41.748Z,19.09
2022-10-05T15:57:15.307Z,19.00
2022-10-05T15:59:58.003Z,19.14
2022-10-05T16:02:31.729Z,19.14
2022-10-05T16:05:06.979Z,19.10
2022-10-05T16:08:13.949Z,19.00
2022-10-05T16:10:45.552Z,18.99
2022-10-05T16:13:23.430Z,18.82
2022-10-05T16:16:12.583Z,18.93
2022-10-05T16:18:54.907Z,18.81
2022-10-05T16:21:30.850Z,18.63
2022-10-05T16:24:16.437Z,18.66
2022-10-05T16:26:56.879Z,18.40
2022-10-05T16:29:38.255Z,18.33
2022-10-05T16:32:11.405Z,18.41
2022-10-05T16:34:50.386Z,18.30
2022-10-05T16:37:31.926Z,18.18
2022-10-05T16:40:03.636Z,17.95
2022-10-05T16:42:47.245Z,18.07
2022-10-05T16:45:46.090Z,18.08
2022-10-05T16:48:20.510Z,18.05
2022-10-05T16:51:01.242Z,18.12
2022-10-05T16:53:34.767Z,17.78
2022-10-05T16:56:05.488Z,17.73
2022-10-05T16:58:45.900Z,17.52
2022-10-05T17:01:27.825Z,17.70
2022-10-05T17:04:12.071Z,17.54
2022-10-05T17:07:09.074Z,17.42
2022-10-05T17:09:52.074Z,17.13
2022-10-05T17:12:45.457Z,16.94
2022-10-05T17:15:29.588Z,16.86
2022-10-05T17:18:12.666Z,17.01
2022-10-05T17:20:47.367Z,16.69
2022-10-05T17:23:30.216Z,16.75
2022-10-05T17:26:05.297Z,16.76
2022-10-05T17:28:40.401Z,16.86
2022-10-05T17:31:16.119Z,16.38
2022-10-05T17:34:26.315Z,16.41
2022-10-05T17:36:57.717Z,16.59
2022-10-05T17:39:47.326Z,16.61
2022-10-05T17:42:47.268Z,16.47
2022-10-05T17:45:50.825Z,16.25
2022-10-05T17:48:38.105Z,16.20
2022-10-05T17:51:35.212Z,16.22
2022-10-05T17:54:37.575Z,16.16
2022-10-05T17:57:21.454Z,16.21
2022-10-05T17:59:58.550Z,15.86
2022-10-05T18:02:42.763Z,16.09
2022-10-05T18:05:27.523Z,16.00
2022-10-05T18:08:31.813Z,15.70
2022-10-05T18:11:13.172Z,15.66
2022-10-05T18:13:46.184Z,15.59
2022-10-05T18:16:14.408Z,15.47
2022-10-05T18:18:57.895Z,15.53
2022-10-05T18:21:35.712Z,15.09
2022-10-05T18:24:19.919Z,15.09
2022-10-05T18:26:57.203Z,14.90
2022-10-05T18:29:55.778Z,14.89
2022-10-05T18:32:34.704Z,14.73
2022-10-05T18:35:08.359Z,14.70
2022-10-05T18:37:50.297Z,14.82
2022-10-05T18:40:32.348Z,14.95
2022-10-05T18:43:13.743Z,14.86
2022-10-05T18:45:59.030Z,14.67
2022-10-05T18:48:36.961Z,14.41
2022-10-05T18:51:11.975Z,14.70
2022-10-05T18:53:45.700Z,14.76
2022-10-05T18:56:22.488Z,14.53
2022-10-05T18:59:02.941Z,14.89
2022-10-05T19:01:48.989Z,14.83
2022-10-05T19:04:28.322Z,14.94
2022-10-05T19:07:08.347Z,14.93
2022-10-05T19:09:50.567Z,14.71
2022-10-05T19:12:26.738Z,14.69
2022-10-05T19:15:06.305Z,14.84
2022-10-05T19:17:52.577Z,14.47
2022-10-05T19:20:26.330Z,14.27
2022-10-05T19:23:09.304Z,14.36
2022-10-05T19:25:44.288Z,14.60
2022-10-05T19:28:20.436Z,14.13
2022-10-05T19:30:59.258Z,14.45
2022-10-05T19:33:34.596Z,14.23
2022-10-05T19:36:19.703Z,14.27
2022-10-05T19:39:03.285Z,14.16
2022-10-05T19:41:50.524Z,14.00
2022-10-05T19:44:26.915Z,14.30
2022-10-05T19:47:01.386Z,13.92
2022-10-05T19:49:48.430Z,14.00
2022-10-05T19:52:23.543Z,13.81
2022-10-05T19:55:04.546Z,13.83
2022-10-05T19:57:33.367Z,13.68
2022-10-05T20:00:00.924Z,13.73
2022-10-05T20:02:28.777Z,13.64
2022-10-05T20:05:07.271Z,13.85
2022-10-05T20:07:36.227Z,13.81
2022-10-05T20:10:26.586Z,13.71
2022-10-05T20:12:57.483Z,13.64
2022-10-05T20:15:44.666Z,13.70
2022-10-05T20:18:54.789Z,13.91
2022-10-05T20:21:46.417Z,14.20
2022-10-05T20:24:15.594Z,14.11
2022-10-05T20:27:15.708Z,14.08
2022-10-05T20:29:46.772Z,14.02
2022-10-05T20:32:19.412Z,13.94
2022-10-05T20:34:49.307Z,13.94
2022-10-05T20:37:18.506Z,13.85
2022-10-05T20:39:47.248Z,13.98
2022-10-05T20:42:15.001Z,13.93
2022-10-05T20:44:42.631Z,13.84
2022-10-05T20:47:12.059Z,13.69
2022-10-05T20:49:41.056Z,13.40
2022-10-05T20:52:10.802Z,13.50
2022-10-05T20:54:39.049Z,13.49
2022-10-05T20:57:08.306Z,13.41
2022-10-05T20:59:36.726Z,13.45
2022-10-05T21:02:04.364Z,13.24
2022-10-05T21:04:40.322Z,13.34
2022-10-05T21:07:08.210Z,13.25
2022-10-05T21:09:38.216Z,13.27
2022-10-05T21:12:06.010Z,13.17
2022-10-05T21:14:34.261Z,13.28
2022-10-05T21:17:02.168Z,13.06
2022-10-05T21:19:30.107Z,12.90
2022-10-05T21:21:59.097Z,12.91
2022-10-05T21:24:26.707Z,12.90
2022-10-05T21:26:57.530Z,12.95
2022-10-05T21:29:25.080Z,12.93
2022-10-05T21:31:52.657Z,12.80
2022-10-05T21:34:20.212Z,12.74
2022-10-05T21:36:47.706Z,13.07
2022-10-05T21:39:17.375Z,13.11
2022-10-05T21:41:44.873Z,12.97
2022-10-05T21:44:12.342Z,13.16
2022-10-05T21:46:40.539Z,13.13
2022-10-05T21:49:09.614Z,13.16
2022-10-05T21:51:37.887Z,13.08
2022-10-05T21:54:12.061Z,13.24
2022-10-05T21:56:44.466Z,13.33
2022-10-05T21:59:14.080Z,13.35
2022-10-05T22:01:41.531Z,13.42
2022-10-05T22:04:09.440Z,13.29
2022-10-05T22:06:37.361Z,13.31
2022-10-05T22:09:06.869Z,13.55
2022-10-05T22:11:34.368Z,13.77
2022-10-05T22:14:03.219Z,13.74
2022-10-05T22:16:33.118Z,13.64
2022-10-05T22:19:04.047Z,13.66
2022-10-05T22:21:34.201Z,13.61
2022-10-05T22:24:02.691Z,13.58
2022-10-05T22:26:30.630Z,13.38
2022-10-05T22:28:58.763Z,13.20
2022-10-05T22:31:27.747Z,13.17
2022-10-05T22:33:55.296Z,13.46
2022-10-05T22:36:22.909Z,13.22
2022-10-05T22:38:50.403Z,13.24
2022-10-05T22:41:18.300Z,13.38
2022-10-05T22:43:48.554Z,13.34
2022-10-05T22:46:16.090Z,13.26
2022-10-05T22:48:45.005Z,13.24
2022-10-05T22:51:12.533Z,12.97
2022-10-05T22:53:39.976Z,13.02
2022-10-05T22:56:08.677Z,13.10
2022-10-05T22:58:36.602Z,12.94
2022-10-05T23:01:05.931Z,12.95
2022-10-05T23:03:34.302Z,12.68
2022-10-05T23:06:05.403Z,12.92
2022-10-05T23:08:33.722Z,12.70
2022-10-05T23:11:02.641Z,12.77
2022-10-05T23:13:30.562Z,12.83
2022-10-05T23:15:58.355Z,12.73
2022-10-05T23:18:26.510Z,12.91
2022-10-05T23:20:55.070Z,12.68
2022-10-05T23:23:24.091Z,12.83
2022-10-05T23:25:51.541Z,12.72
2022-10-05T23:28:19.122Z,12.76
2022-10-05T23:30:46.718Z,12.60
2022-10-05T23:33:14.220Z,12.53
2022-10-05T23:35:41.663Z,12.62
2022-10-05T23:38:09.188Z,12.44
2022-10-05T23:40:37.972Z,12.34
2022-10-05T23:43:05.652Z,12.49
2022-10-05T23:45:33.183Z,12.72
2022-10-05T23:48:00.659Z,12.60
2022-10-05T23:50:28.126Z,12.71
2022-10-05T23:52:55.564Z,12.70
2022-10-05T23:55:23.026Z,12.66
2022-10-05T23:57:51.799Z,12.82
